createdAt,value
2019-04-25T00:02:28.671Z,101774.78
2019-04-25T00:04:58.194Z,101771.88
2019-04-25T00:07:27.807Z,101779.81
2019-04-25T00:09:57.103Z,101771.12
2019-04-25T00:12:26.473Z,101764.44
2019-04-25T00:14:55.887Z,101777.33
2019-04-25T00:17:25.857Z,101773.19
2019-04-25T00:19:55.125Z,101777.53
2019-04-25T00:22:31.684Z,101776.63
2019-04-25T00:25:18.138Z,101771.88
2019-04-25T00:27:48.506Z,101771.39
2019-04-25T00:30:19.338Z,101771.39
2019-04-25T00:32:49.294Z,101768.36
2019-04-25T00:35:18.832Z,101768.98
2019-04-25T00:37:48.080Z,101767.66
2019-04-25T00:40:17.327Z,101776.77
2019-04-25T00:42:46.688Z,101769.86
2019-04-25T00:45:16.482Z,101779.23
2019-04-25T00:47:45.748Z,101769.72
2019-04-25T00:50:15.012Z,101770.20
2019-04-25T00:52:44.855Z,101763.66
2019-04-25T00:55:25.920Z,101766.13
2019-04-25T00:57:46.877Z,101762.06
2019-04-25T01:00:37.522Z,101764.55
2019-04-25T01:03:08.278Z,101766.88
2019-04-25T01:05:37.509Z,101762.31
2019-04-25T01:08:06.742Z,101767.97
2019-04-25T01:10:36.027Z,101755.70
2019-04-25T01:13:05.456Z,101761.55
2019-04-25T01:15:34.876Z,101757.62
2019-04-25T01:18:04.663Z,101761.41
2019-04-25T01:20:34.469Z,101762.56
2019-04-25T01:23:03.856Z,101761.33
2019-04-25T01:25:40.428Z,101758.38
2019-04-25T01:28:04.211Z,101750.66
2019-04-25T01:30:34.085Z,101749.28
2019-04-25T01:33:04.179Z,101741.84
2019-04-25T01:35:48.901Z,101743.62
2019-04-25T01:38:33.511Z,101734.40
2019-04-25T01:41:21.998Z,101743.91
2019-04-25T01:44:14.338Z,101738.03
2019-04-25T01:46:45.612Z,101741.41
2019-04-25T01:49:15.007Z,101739.05
2019-04-25T01:51:44.391Z,101741.59
2019-04-25T01:54:14.132Z,101735.13
2019-04-25T01:56:44.314Z,101738.72
2019-04-25T01:59:15.225Z,101735.05
2019-04-25T02:01:44.665Z,101735.39
2019-04-25T02:04:14.040Z,101731.95
2019-04-25T02:06:43.472Z,101729.00
2019-04-25T02:09:14.182Z,101723.77
2019-04-25T02:12:05.608Z,101721.48
2019-04-25T02:14:35.423Z,101721.00
2019-04-25T02:17:04.740Z,101721.27
2019-04-25T02:19:35.724Z,101711.97
2019-04-25T02:22:04.989Z,101717.20
2019-04-25T02:24:34.223Z,101716.30
2019-04-25T02:27:04.639Z,101722.77
2019-04-25T02:29:34.047Z,101723.11
2019-04-25T02:32:08.754Z,101712.57
2019-04-25T02:34:34.944Z,101711.67
2019-04-25T02:37:09.179Z,101708.09
2019-04-25T02:39:37.457Z,101706.63
2019-04-25T02:42:08.480Z,101709.59
2019-04-25T02:44:40.371Z,101687.78
2019-04-25T02:47:29.541Z,101711.35
2019-04-25T02:50:09.219Z,101704.73
2019-04-25T02:52:47.164Z,101706.31
2019-04-25T02:55:31.131Z,101701.41
2019-04-25T02:57:47.369Z,101699.62
2019-04-25T03:00:27.692Z,101697.01
2019-04-25T03:02:59.029Z,101691.70
2019-04-25T03:05:28.611Z,101691.30
2019-04-25T03:07:59.845Z,101695.70
2019-04-25T03:10:30.966Z,101694.39
2019-04-25T03:13:02.028Z,101686.55
2019-04-25T03:15:34.204Z,101694.31
2019-04-25T03:18:05.773Z,101691.22
2019-04-25T03:20:47.489Z,101690.80
2019-04-25T03:23:36.508Z,101688.60
2019-04-25T03:26:07.552Z,101687.22
2019-04-25T03:28:37.003Z,101691.55
2019-04-25T03:31:13.394Z,101696.38
2019-04-25T03:33:38.798Z,101689.34
2019-04-25T03:36:09.324Z,101690.32
2019-04-25T03:38:38.887Z,101682.55
2019-04-25T03:41:08.657Z,101682.62
2019-04-25T03:43:40.410Z,101682.77
2019-04-25T03:46:10.324Z,101681.95
2019-04-25T03:48:40.026Z,101681.95
2019-04-25T03:51:10.005Z,101687.17
2019-04-25T03:53:39.226Z,101685.60
2019-04-25T03:56:08.709Z,101685.68
2019-04-25T03:58:38.216Z,101687.06
2019-04-25T04:01:09.636Z,101679.21
2019-04-25T04:03:38.972Z,101683.28
2019-04-25T04:06:08.682Z,101678.19
2019-04-25T04:08:38.874Z,101687.50
2019-04-25T04:11:08.681Z,101682.75
2019-04-25T04:13:38.001Z,101687.30
2019-04-25T04:16:07.255Z,101684.91
2019-04-25T04:18:44.404Z,101674.50
2019-04-25T04:21:38.768Z,101683.73
2019-04-25T04:24:16.058Z,101678.72
2019-04-25T04:27:06.700Z,101685.06
2019-04-25T04:29:35.293Z,101682.52
2019-04-25T04:32:04.738Z,101686.66
2019-04-25T04:34:34.679Z,101685.00
2019-04-25T04:37:04.103Z,101695.20
2019-04-25T04:39:33.887Z,101688.73
2019-04-25T04:42:03.795Z,101687.63
2019-04-25T04:44:34.346Z,101687.84
2019-04-25T04:47:04.117Z,101686.67
2019-04-25T04:49:34.398Z,101696.11
2019-04-25T04:52:04.486Z,101699.36
2019-04-25T04:54:34.975Z,101706.59
2019-04-25T04:57:16.893Z,101700.80
2019-04-25T04:59:35.253Z,101705.48
2019-04-25T05:02:18.785Z,101702.72
2019-04-25T05:05:07.206Z,101711.82
2019-04-25T05:07:45.971Z,101711.67
2019-04-25T05:10:17.716Z,101713.19
2019-04-25T05:12:46.280Z,101712.56
2019-04-25T05:15:16.870Z,101707.27
2019-04-25T05:17:46.643Z,101704.42
2019-04-25T05:20:17.512Z,101702.96
2019-04-25T05:22:46.925Z,101701.23
2019-04-25T05:25:17.682Z,101705.49
2019-04-25T05:27:59.593Z,101702.77
2019-04-25T05:30:26.460Z,101702.25
2019-04-25T05:32:54.885Z,101697.67
2019-04-25T05:35:25.280Z,101699.71
2019-04-25T05:37:54.795Z,101697.75
2019-04-25T05:40:24.503Z,101698.89
2019-04-25T05:43:15.001Z,101708.80
2019-04-25T05:45:44.493Z,101708.21
2019-04-25T05:48:15.208Z,101710.24
2019-04-25T05:50:45.043Z,101721.46
2019-04-25T05:53:16.176Z,101717.47
2019-04-25T05:55:45.697Z,101723.12
2019-04-25T05:58:15.057Z,101723.95
2019-04-25T06:00:44.630Z,101722.93
2019-04-25T06:03:13.885Z,101720.17
2019-04-25T06:05:43.455Z,101722.64
2019-04-25T06:08:14.188Z,101728.23
2019-04-25T06:11:04.038Z,101721.05
2019-04-25T06:13:46.967Z,101727.06
2019-04-25T06:16:21.016Z,101722.55
2019-04-25T06:19:16.377Z,101722.94
2019-04-25T06:21:43.571Z,101720.20
2019-04-25T06:24:32.769Z,101714.95
2019-04-25T06:27:25.616Z,101712.36
2019-04-25T06:30:04.579Z,101714.51
2019-04-25T06:32:35.340Z,101716.13
2019-04-25T06:35:05.557Z,101715.58
2019-04-25T06:37:35.131Z,101709.45
2019-04-25T06:40:06.056Z,101709.13
2019-04-25T06:42:36.343Z,101707.38
2019-04-25T06:45:25.303Z,101708.27
2019-04-25T06:48:04.965Z,101712.59
2019-04-25T06:50:35.416Z,101709.45
2019-04-25T06:53:05.248Z,101705.47
2019-04-25T06:55:34.905Z,101702.28
2019-04-25T06:58:11.644Z,101705.77
2019-04-25T07:00:41.138Z,101696.94
2019-04-25T07:03:06.424Z,101689.95
2019-04-25T07:05:40.284Z,101686.14
2019-04-25T07:08:06.757Z,101687.80
2019-04-25T07:10:36.065Z,101692.91
2019-04-25T07:13:05.334Z,101679.31
2019-04-25T07:15:35.309Z,101688.58
2019-04-25T07:18:04.560Z,101683.11
2019-04-25T07:20:34.539Z,101680.09
2019-04-25T07:23:04.973Z,101689.03
2019-04-25T07:25:37.031Z,101684.09
2019-04-25T07:28:32.468Z,101681.73
2019-04-25T07:31:23.260Z,101681.07
2019-04-25T07:33:59.508Z,101681.22
2019-04-25T07:36:28.886Z,101683.06
2019-04-25T07:39:08.210Z,101690.58
2019-04-25T07:41:29.354Z,101692.83
2019-04-25T07:43:58.600Z,101687.92
2019-04-25T07:46:27.872Z,101683.50
2019-04-25T07:48:57.161Z,101677.44
2019-04-25T07:51:26.853Z,101678.00
2019-04-25T07:53:56.045Z,101672.77
2019-04-25T07:56:25.447Z,101666.30
2019-04-25T07:58:54.886Z,101661.52
2019-04-25T08:01:24.147Z,101671.77
2019-04-25T08:03:53.890Z,101666.02
2019-04-25T08:06:24.209Z,101674.42
2019-04-25T08:08:54.591Z,101672.20
2019-04-25T08:11:24.145Z,101669.58
2019-04-25T08:14:16.339Z,101678.06
2019-04-25T08:16:48.785Z,101667.33
2019-04-25T08:19:18.335Z,101673.09
2019-04-25T08:21:48.580Z,101585.59
2019-04-25T08:24:18.275Z,101676.16
2019-04-25T08:26:47.538Z,101679.20
2019-04-25T08:29:16.780Z,101679.58
2019-04-25T08:31:46.088Z,101682.14
2019-04-25T08:34:15.340Z,101680.02
2019-04-25T08:36:45.778Z,101666.33
2019-04-25T08:39:15.367Z,101668.53
2019-04-25T08:41:45.707Z,101660.88
2019-04-25T08:44:15.164Z,101663.61
2019-04-25T08:46:48.425Z,101667.61
2019-04-25T08:49:21.194Z,101673.21
2019-04-25T08:51:51.478Z,101668.94
2019-04-25T08:54:47.568Z,101677.12
2019-04-25T08:57:36.048Z,101669.91
2019-04-25T09:00:14.332Z,101668.30
2019-04-25T09:02:50.234Z,101661.25
2019-04-25T09:05:24.166Z,101663.39
2019-04-25T09:07:54.370Z,101661.52
2019-04-25T09:10:23.930Z,101656.16
2019-04-25T09:12:53.738Z,101660.03
2019-04-25T09:15:24.140Z,101654.27
2019-04-25T09:17:54.667Z,101656.51
2019-04-25T09:20:24.274Z,101659.47
2019-04-25T09:22:54.248Z,101654.89
2019-04-25T09:25:24.032Z,101657.69
2019-04-25T09:27:54.426Z,101655.56
2019-04-25T09:30:24.144Z,101661.74
2019-04-25T09:32:53.668Z,101652.30
2019-04-25T09:35:23.643Z,101654.36
2019-04-25T09:37:53.684Z,101660.14
2019-04-25T09:40:24.093Z,101656.71
2019-04-25T09:42:53.844Z,101654.08
2019-04-25T09:45:55.025Z,101648.35
2019-04-25T09:48:29.845Z,101658.53
2019-04-25T09:51:13.591Z,101655.41
2019-04-25T09:53:50.035Z,101661.69
2019-04-25T09:56:25.498Z,101661.55
2019-04-25T09:59:27.276Z,101662.19
2019-04-25T10:01:51.476Z,101663.51
2019-04-25T10:04:22.975Z,101652.64
2019-04-25T10:06:53.479Z,101665.65
2019-04-25T10:09:23.785Z,101653.46
2019-04-25T10:11:54.729Z,101661.69
2019-04-25T10:14:58.580Z,101672.41
2019-04-25T10:17:29.337Z,101663.45
2019-04-25T10:19:58.634Z,101669.94
2019-04-25T10:22:29.378Z,101666.27
2019-04-25T10:25:00.671Z,101649.59
2019-04-25T10:27:29.866Z,101647.44
2019-04-25T10:30:14.529Z,101639.08
2019-04-25T10:32:33.526Z,101640.09
2019-04-25T10:35:02.945Z,101636.32
2019-04-25T10:37:33.659Z,101632.64
2019-04-25T10:40:05.282Z,101638.11
2019-04-25T10:42:34.733Z,101627.43
2019-04-25T10:45:04.400Z,101630.75
2019-04-25T10:47:35.180Z,101631.92
2019-04-25T10:50:05.046Z,101639.41
2019-04-25T10:52:34.287Z,101643.13
2019-04-25T10:55:04.243Z,101637.42
2019-04-25T10:57:34.062Z,101635.92
2019-04-25T11:00:09.076Z,101631.19
2019-04-25T11:02:36.089Z,101644.27
2019-04-25T11:05:11.417Z,101643.03
2019-04-25T11:07:40.715Z,101633.11
2019-04-25T11:10:10.009Z,101645.61
2019-04-25T11:12:40.041Z,101651.20
2019-04-25T11:15:09.782Z,101653.69
2019-04-25T11:17:39.088Z,101654.45
2019-04-25T11:20:14.184Z,101650.09
2019-04-25T11:22:44.767Z,101648.91
2019-04-25T11:25:15.009Z,101640.20
2019-04-25T11:27:47.359Z,101646.87
2019-04-25T11:30:16.696Z,101636.30
2019-04-25T11:32:45.948Z,101642.09
2019-04-25T11:35:15.411Z,101649.55
2019-04-25T11:37:44.871Z,101658.66
2019-04-25T11:40:32.005Z,101665.67
2019-04-25T11:43:01.541Z,101665.19
2019-04-25T11:45:30.899Z,101668.17
2019-04-25T11:48:00.190Z,101671.50
2019-04-25T11:50:29.739Z,101669.48
2019-04-25T11:52:59.075Z,101674.15
2019-04-25T11:55:28.547Z,101664.94
2019-04-25T11:57:58.379Z,101650.60
2019-04-25T12:00:29.761Z,101665.47
2019-04-25T12:02:59.097Z,101661.23
2019-04-25T12:05:30.169Z,101665.70
2019-04-25T12:07:59.440Z,101663.66
2019-04-25T12:10:30.479Z,101660.59
2019-04-25T12:12:59.786Z,101655.38
2019-04-25T12:15:29.371Z,101661.12
2019-04-25T12:17:58.723Z,101649.03
2019-04-25T12:20:27.979Z,101650.77
2019-04-25T12:23:05.931Z,101648.58
2019-04-25T12:25:28.585Z,101646.02
2019-04-25T12:27:57.826Z,101646.48
2019-04-25T12:30:37.455Z,101651.36
2019-04-25T12:32:58.149Z,101649.58
2019-04-25T12:35:27.430Z,101639.48
2019-04-25T12:37:56.680Z,101638.89
2019-04-25T12:40:25.987Z,101643.53
2019-04-25T12:42:55.246Z,101642.45
2019-04-25T12:45:34.358Z,101643.94
2019-04-25T12:48:04.142Z,101637.30
2019-04-25T12:50:33.710Z,101638.59
2019-04-25T12:53:03.758Z,101636.72
2019-04-25T12:55:34.196Z,101638.19
2019-04-25T12:58:04.244Z,101629.27
2019-04-25T13:00:34.173Z,101634.51
2019-04-25T13:03:06.914Z,101624.65
2019-04-25T13:05:35.375Z,101625.95
2019-04-25T13:08:04.961Z,101627.47
2019-04-25T13:10:34.497Z,101628.16
2019-04-25T13:13:04.063Z,101628.59
2019-04-25T13:15:34.192Z,101638.28
2019-04-25T13:18:03.623Z,101642.93
2019-04-25T13:20:32.860Z,101646.90
2019-04-25T13:23:03.538Z,101651.35
2019-04-25T13:25:34.310Z,101640.23
2019-04-25T13:28:25.435Z,101647.73
2019-04-25T13:31:14.812Z,101634.88
2019-04-25T13:33:58.867Z,101633.46
2019-04-25T13:36:28.402Z,101634.11
2019-04-25T13:38:57.658Z,101634.80
2019-04-25T13:41:27.036Z,101630.64
2019-04-25T13:43:56.655Z,101632.48
2019-04-25T13:46:27.682Z,101620.48
2019-04-25T13:48:57.037Z,101628.49
2019-04-25T13:51:26.477Z,101633.89
2019-04-25T13:53:55.809Z,101632.29
2019-04-25T13:56:26.540Z,101625.92
2019-04-25T13:58:56.456Z,101626.69
2019-04-25T14:01:25.966Z,101629.52
2019-04-25T14:03:55.788Z,101636.51
2019-04-25T14:06:26.151Z,101636.40
2019-04-25T14:08:55.594Z,101636.87
2019-04-25T14:11:25.916Z,101634.14
2019-04-25T14:13:55.534Z,101639.39
2019-04-25T14:16:49.549Z,101641.52
2019-04-25T14:19:37.731Z,101639.67
2019-04-25T14:22:07.325Z,101634.20
2019-04-25T14:24:36.579Z,101633.55
2019-04-25T14:27:06.204Z,101632.58
2019-04-25T14:29:35.558Z,101635.67
2019-04-25T14:32:06.504Z,101633.37
2019-04-25T14:34:35.765Z,101629.83
2019-04-25T14:37:05.226Z,101634.58
2019-04-25T14:39:34.497Z,101632.03
2019-04-25T14:42:03.740Z,101650.50
2019-04-25T14:44:33.583Z,101636.41
2019-04-25T14:47:03.069Z,101635.31
2019-04-25T14:49:33.249Z,101632.81
2019-04-25T14:52:02.579Z,101629.23
2019-04-25T14:54:37.968Z,101633.25
2019-04-25T14:57:15.358Z,101633.41
2019-04-25T14:59:44.615Z,101628.84
2019-04-25T15:02:14.059Z,101624.77
2019-04-25T15:04:43.471Z,101628.20
2019-04-25T15:07:12.723Z,101548.46
2019-04-25T15:09:42.054Z,101614.70
2019-04-25T15:12:11.713Z,101621.95
2019-04-25T15:14:40.993Z,101626.14
2019-04-25T15:17:10.641Z,101628.70
2019-04-25T15:19:40.009Z,101631.61
2019-04-25T15:22:09.261Z,101608.06
2019-04-25T15:24:38.542Z,101621.33
2019-04-25T15:27:07.867Z,101620.80
2019-04-25T15:29:37.111Z,101622.88
2019-04-25T15:32:08.330Z,101620.97
2019-04-25T15:34:50.055Z,101626.72
2019-04-25T15:37:41.211Z,101622.78
2019-04-25T15:40:17.389Z,101620.08
2019-04-25T15:43:05.579Z,101619.97
2019-04-25T15:45:49.238Z,101630.27
2019-04-25T15:48:18.667Z,101630.16
2019-04-25T15:50:47.967Z,101621.17
2019-04-25T15:53:17.254Z,101625.59
2019-04-25T15:55:46.497Z,101625.59
2019-04-25T15:58:16.033Z,101610.53
2019-04-25T16:00:45.493Z,101610.53
2019-04-25T16:03:14.848Z,101635.30
2019-04-25T16:05:44.267Z,101623.68
2019-04-25T16:08:13.586Z,101626.58
2019-04-25T16:10:42.943Z,101622.23
2019-04-25T16:13:12.372Z,101621.86
2019-04-25T16:15:41.674Z,101630.75
2019-04-25T16:18:11.478Z,101626.29
2019-04-25T16:20:40.735Z,101630.71
2019-04-25T16:23:10.036Z,101633.42
2019-04-25T16:25:39.309Z,101643.27
2019-04-25T16:28:08.592Z,101643.27
2019-04-25T16:30:38.637Z,101649.89
2019-04-25T16:33:08.189Z,101651.48
2019-04-25T16:35:37.853Z,101653.47
2019-04-25T16:38:07.316Z,101646.41
2019-04-25T16:40:36.556Z,101638.49
2019-04-25T16:43:08.166Z,101632.71
2019-04-25T16:45:39.179Z,101633.80
2019-04-25T16:48:08.417Z,101637.86
2019-04-25T16:50:37.659Z,101636.08
2019-04-25T16:53:06.986Z,101629.09
2019-04-25T16:55:36.694Z,101631.41
2019-04-25T16:58:06.191Z,101627.98
2019-04-25T17:00:49.333Z,101621.89
2019-04-25T17:03:19.048Z,101621.03
2019-04-25T17:05:48.472Z,101625.42
2019-04-25T17:08:18.103Z,101636.02
2019-04-25T17:10:47.384Z,101635.12
2019-04-25T17:13:16.607Z,101623.56
2019-04-25T17:16:12.615Z,101633.59
2019-04-25T17:18:48.313Z,101632.23
2019-04-25T17:21:17.678Z,101631.69
2019-04-25T17:23:46.922Z,101628.98
2019-04-25T17:26:16.455Z,101627.97
2019-04-25T17:28:47.383Z,101631.78
2019-04-25T17:31:34.577Z,101635.66
2019-04-25T17:34:14.588Z,101647.92
2019-04-25T17:37:01.212Z,101640.28
2019-04-25T17:39:40.801Z,101645.09
2019-04-25T17:42:10.059Z,101641.45
2019-04-25T17:44:39.303Z,101639.23
2019-04-25T17:47:08.626Z,101642.73
2019-04-25T17:49:37.972Z,101642.30
2019-04-25T17:52:07.247Z,101641.25
2019-04-25T17:54:36.678Z,101641.60
2019-04-25T17:57:05.988Z,101641.91
2019-04-25T17:59:35.277Z,101636.47
2019-04-25T18:02:04.889Z,101638.91
2019-04-25T18:04:34.206Z,101641.38
2019-04-25T18:07:04.132Z,101638.11
2019-04-25T18:09:34.413Z,101636.33
2019-04-25T18:12:04.707Z,101634.50
2019-04-25T18:14:34.038Z,101631.69
2019-04-25T18:17:04.745Z,101630.16
2019-04-25T18:20:02.084Z,101632.07
2019-04-25T18:22:51.490Z,101632.88
2019-04-25T18:25:34.407Z,101638.06
2019-04-25T18:28:17.823Z,101639.29
2019-04-25T18:30:48.073Z,101644.34
2019-04-25T18:33:28.464Z,101638.13
2019-04-25T18:36:20.499Z,101639.45
2019-04-25T18:38:59.380Z,101650.79
2019-04-25T18:41:39.796Z,101649.30
2019-04-25T18:44:09.407Z,101648.40
2019-04-25T18:46:41.296Z,101645.72
2019-04-25T18:49:10.566Z,101648.64
2019-04-25T18:51:40.693Z,101645.30
2019-04-25T18:54:23.266Z,101647.25
2019-04-25T18:57:00.279Z,101640.91
2019-04-25T18:59:41.585Z,101642.48
2019-04-25T19:02:31.099Z,101647.70
2019-04-25T19:05:19.289Z,101648.08
2019-04-25T19:07:48.769Z,101645.12
2019-04-25T19:10:18.098Z,101646.48
2019-04-25T19:12:47.427Z,101657.39
2019-04-25T19:15:16.892Z,101657.20
2019-04-25T19:17:46.154Z,101655.78
2019-04-25T19:20:15.504Z,101661.99
2019-04-25T19:22:45.760Z,101657.30
2019-04-25T19:25:15.511Z,101659.45
2019-04-25T19:27:44.975Z,101658.00
2019-04-25T19:30:16.211Z,101659.31
2019-04-25T19:32:45.482Z,101663.68
2019-04-25T19:35:14.842Z,101662.17
2019-04-25T19:37:44.117Z,101658.22
2019-04-25T19:40:23.686Z,101656.53
2019-04-25T19:42:56.574Z,101661.47
2019-04-25T19:45:26.055Z,101652.78
2019-04-25T19:47:55.408Z,101656.77
2019-04-25T19:50:24.685Z,101658.56
2019-04-25T19:52:53.988Z,101661.66
2019-04-25T19:55:23.275Z,101659.45
2019-04-25T19:57:52.613Z,101661.66
2019-04-25T20:00:22.881Z,101660.35
2019-04-25T20:03:02.218Z,101660.77
2019-04-25T20:05:46.203Z,101661.47
2019-04-25T20:08:25.196Z,101656.53
2019-04-25T20:10:58.395Z,101654.65
2019-04-25T20:13:27.695Z,101655.39
2019-04-25T20:15:56.971Z,101655.67
2019-04-25T20:18:26.298Z,101656.09
2019-04-25T20:20:55.572Z,101655.20
2019-04-25T20:23:24.879Z,101652.56
2019-04-25T20:25:56.269Z,101647.20
2019-04-25T20:28:25.106Z,101643.58
2019-04-25T20:30:54.571Z,101646.44
2019-04-25T20:33:24.223Z,101649.39
2019-04-25T20:35:53.542Z,101648.48
2019-04-25T20:38:22.925Z,101640.60
2019-04-25T20:40:52.224Z,101647.55
2019-04-25T20:43:21.514Z,101645.23
2019-04-25T20:45:50.824Z,101645.70
2019-04-25T20:48:20.084Z,101649.13
2019-04-25T20:50:50.323Z,101645.88
2019-04-25T20:53:19.644Z,101640.88
2019-04-25T20:55:50.777Z,101648.35
2019-04-25T20:58:20.079Z,101643.94
2019-04-25T21:00:52.518Z,101643.26
2019-04-25T21:03:22.063Z,101639.58
2019-04-25T21:05:55.103Z,101641.16
2019-04-25T21:08:24.731Z,101641.89
2019-04-25T21:10:53.984Z,101639.36
2019-04-25T21:13:34.788Z,101641.73
2019-04-25T21:16:22.127Z,101641.14
2019-04-25T21:18:57.822Z,101645.77
2019-04-25T21:21:27.063Z,101646.08
2019-04-25T21:23:56.974Z,101643.76
2019-04-25T21:26:26.446Z,101645.66
2019-04-25T21:28:56.223Z,101647.64
2019-04-25T21:31:25.570Z,101636.97
2019-04-25T21:33:55.285Z,101649.03
2019-04-25T21:36:25.094Z,101641.77
2019-04-25T21:38:55.396Z,101645.53
2019-04-25T21:41:42.755Z,101643.22
2019-04-25T21:44:12.289Z,101648.35
2019-04-25T21:46:41.545Z,101649.02
2019-04-25T21:49:11.357Z,101644.01
2019-04-25T21:51:40.615Z,101646.87
2019-04-25T21:54:09.873Z,101645.03
2019-04-25T21:56:39.463Z,101653.69
2019-04-25T21:59:08.996Z,101651.23
2019-04-25T22:01:41.702Z,101651.54
2019-04-25T22:04:11.203Z,101656.66
2019-04-25T22:06:41.000Z,101646.89
2019-04-25T22:09:16.063Z,101654.64
2019-04-25T22:11:45.692Z,101642.59
2019-04-25T22:14:15.592Z,101638.47
2019-04-25T22:16:45.254Z,101640.14
2019-04-25T22:19:15.679Z,101644.02
2019-04-25T22:21:45.201Z,101639.19
2019-04-25T22:24:14.598Z,101632.98
2019-04-25T22:26:46.660Z,101628.92
2019-04-25T22:29:16.008Z,101624.45
2019-04-25T22:31:52.886Z,101629.16
2019-04-25T22:34:52.042Z,101629.16
2019-04-25T22:37:13.423Z,101622.00
2019-04-25T22:39:42.952Z,101625.81
2019-04-25T22:42:12.260Z,101624.38
2019-04-25T22:44:41.950Z,101617.28
2019-04-25T22:47:11.190Z,101625.03
2019-04-25T22:49:40.427Z,101624.61
2019-04-25T22:52:11.171Z,101621.45
2019-04-25T22:54:40.885Z,101619.30
2019-04-25T22:57:10.137Z,101616.33
2019-04-25T22:59:39.604Z,101617.70
2019-04-25T23:02:27.784Z,101618.18
2019-04-25T23:05:16.784Z,101611.08
2019-04-25T23:07:46.082Z,101609.77
2019-04-25T23:10:16.052Z,101606.73
2019-04-25T23:12:45.343Z,101605.66
2019-04-25T23:15:15.535Z,101605.47
2019-04-25T23:17:44.771Z,101602.30
2019-04-25T23:20:14.833Z,101604.98
2019-04-25T23:22:44.073Z,101599.27
2019-04-25T23:25:15.540Z,101604.16
2019-04-25T23:28:08.537Z,101603.32
2019-04-25T23:30:57.944Z,101603.44
2019-04-25T23:33:27.231Z,101600.28
2019-04-25T23:35:56.669Z,101602.48
2019-04-25T23:38:25.900Z,101602.61
2019-04-25T23:40:55.200Z,101603.86
2019-04-25T23:43:24.934Z,101602.61
2019-04-25T23:45:54.177Z,101603.86
2019-04-25T23:48:23.621Z,101610.25
2019-04-25T23:50:53.714Z,101612.09
2019-04-25T23:53:23.100Z,101618.78
2019-04-25T23:55:52.502Z,101617.88
2019-04-25T23:58:21.780Z,101623.61
